createdAt,value
2023-03-27T05:45:48.231Z,100.00
2023-03-27T05:48:51.146Z,100.00
2023-03-27T05:51:54.053Z,100.00
2023-03-27T05:54:57.009Z,100.00
2023-03-27T05:58:00.272Z,100.00
2023-03-27T06:01:04.609Z,100.00
2023-03-27T06:04:09.481Z,100.00
2023-03-27T06:07:14.963Z,100.00
2023-03-27T06:10:20.399Z,100.00
2023-03-27T06:13:24.237Z,100.00
2023-03-27T06:16:28.964Z,100.00
2023-03-27T06:19:31.919Z,100.00
2023-03-27T06:22:34.726Z,100.00
2023-03-27T06:25:39.578Z,100.00
2023-03-27T06:28:43.732Z,100.00
2023-03-27T06:31:48.080Z,100.00
2023-03-27T06:34:51.339Z,99.02
2023-03-27T06:37:55.850Z,99.31
2023-03-27T06:40:59.770Z,100.00
2023-03-27T06:44:02.304Z,100.00
2023-03-27T06:47:06.367Z,100.00
2023-03-27T06:50:10.017Z,100.00
2023-03-27T06:53:25.769Z,100.00
2023-03-27T06:56:29.523Z,100.00
2023-03-27T06:59:32.005Z,100.00
2023-03-27T07:02:36.069Z,100.00
2023-03-27T07:05:40.851Z,100.00
2023-03-27T07:08:43.595Z,97.19
2023-03-27T07:11:46.175Z,96.32
2023-03-27T07:14:48.710Z,92.67
2023-03-27T07:17:56.710Z,93.50
2023-03-27T07:20:59.395Z,93.96
2023-03-27T07:24:02.420Z,93.85
2023-03-27T07:27:05.717Z,93.28
2023-03-27T07:30:12.158Z,94.55
2023-03-27T07:33:16.088Z,96.49
2023-03-27T07:36:18.630Z,93.11
2023-03-27T07:39:21.610Z,93.09
2023-03-27T07:42:24.759Z,92.66
2023-03-27T07:45:27.338Z,92.53
2023-03-27T07:48:32.399Z,92.24
2023-03-27T07:51:38.773Z,92.81
2023-03-27T07:54:49.236Z,92.65
2023-03-27T07:58:00.492Z,88.79
2023-03-27T08:01:04.752Z,85.80
2023-03-27T08:04:10.518Z,88.36
2023-03-27T08:07:15.476Z,88.58
2023-03-27T08:10:21.513Z,88.63
2023-03-27T08:13:26.984Z,86.99
2023-03-27T08:16:31.304Z,84.00
2023-03-27T08:19:35.584Z,81.17
2023-03-27T08:22:39.482Z,82.65
2023-03-27T08:25:42.845Z,82.20
2023-03-27T08:28:45.417Z,81.61
2023-03-27T08:31:48.006Z,84.26
2023-03-27T08:34:51.824Z,79.36
2023-03-27T08:37:54.345Z,73.12
2023-03-27T08:40:59.826Z,73.93
2023-03-27T08:44:06.292Z,68.25
2023-03-27T08:47:15.609Z,74.25
2023-03-27T08:50:31.229Z,68.40
2023-03-27T08:53:40.391Z,67.00
2023-03-27T08:56:43.004Z,71.87
2023-03-27T08:59:45.828Z,71.20
2023-03-27T09:02:53.962Z,63.88
2023-03-27T09:06:02.531Z,65.84
2023-03-27T09:09:10.733Z,68.87
2023-03-27T09:12:33.285Z,63.59
2023-03-27T09:15:41.954Z,60.34
2023-03-27T09:18:54.011Z,62.50
2023-03-27T09:22:05.685Z,60.31
2023-03-27T09:25:20.326Z,61.63
2023-03-27T09:28:26.343Z,57.68
2023-03-27T09:31:32.202Z,57.21
2023-03-27T09:34:34.792Z,58.82
2023-03-27T09:37:39.945Z,56.34
2023-03-27T09:40:47.498Z,55.91
2023-03-27T09:43:56.741Z,53.69
2023-03-27T09:47:05.738Z,53.66
2023-03-27T09:50:25.577Z,55.66
2023-03-27T09:53:31.010Z,54.86
2023-03-27T09:56:37.246Z,51.42
2023-03-27T09:59:52.153Z,52.03
2023-03-27T10:03:01.481Z,52.12
2023-03-27T10:06:08.375Z,51.59
2023-03-27T10:09:23.486Z,47.54
2023-03-27T10:12:27.188Z,46.77
2023-03-27T10:15:34.163Z,49.24
2023-03-27T10:18:44.098Z,48.72
2023-03-27T10:21:46.728Z,50.62
2023-03-27T10:24:54.101Z,51.62
2023-03-27T10:28:09.242Z,54.29
2023-03-27T10:31:29.700Z,52.00
2023-03-27T10:34:36.630Z,50.08
2023-03-27T10:37:50.039Z,50.29
2023-03-27T10:40:56.898Z,49.71
2023-03-27T10:43:59.694Z,48.88
2023-03-27T10:47:02.658Z,48.09
2023-03-27T10:50:14.609Z,46.28
2023-03-27T10:53:19.110Z,47.39
2023-03-27T10:56:27.716Z,48.79
2023-03-27T10:59:41.626Z,46.83
2023-03-27T11:02:50.329Z,47.08
2023-03-27T11:05:54.304Z,45.96
2023-03-27T11:09:05.590Z,49.06
2023-03-27T11:12:12.599Z,47.90
2023-03-27T11:15:22.206Z,44.54
2023-03-27T11:18:29.530Z,51.04
2023-03-27T11:21:37.970Z,52.39
2023-03-27T11:24:47.750Z,48.06
2023-03-27T11:28:01.578Z,49.42
2023-03-27T11:31:11.695Z,45.70
2023-03-27T11:34:29.233Z,46.03
2023-03-27T11:37:41.657Z,44.32
2023-03-27T11:40:47.747Z,47.05
2023-03-27T11:43:51.582Z,49.55
2023-03-27T11:47:15.126Z,50.25
2023-03-27T11:50:24.915Z,48.75
2023-03-27T11:54:01.095Z,47.96
2023-03-27T11:57:07.218Z,45.56
2023-03-27T12:00:19.108Z,45.92
2023-03-27T12:03:46.887Z,44.53
2023-03-27T12:06:56.982Z,46.09
2023-03-27T12:10:18.726Z,45.52
2023-03-27T12:13:41.352Z,45.37
2023-03-27T12:16:58.206Z,46.96
2023-03-27T12:20:48.652Z,49.17
2023-03-27T12:24:16.122Z,46.56
2023-03-27T12:27:42.159Z,42.97
2023-03-27T12:30:56.419Z,45.08
2023-03-27T12:34:04.493Z,45.89
2023-03-27T12:37:13.170Z,45.05
2023-03-27T12:40:29.068Z,45.98
2023-03-27T12:43:33.785Z,43.25
2023-03-27T12:46:39.685Z,44.42
2023-03-27T12:49:48.340Z,47.19
2023-03-27T12:52:53.242Z,48.07
2023-03-27T12:56:26.833Z,48.24
2023-03-27T12:59:30.194Z,50.68
2023-03-27T13:03:14.579Z,55.03
2023-03-27T13:06:31.183Z,58.85
2023-03-27T13:09:48.079Z,52.16
2023-03-27T13:13:05.650Z,52.44
2023-03-27T13:16:40.389Z,52.44
2023-03-27T13:19:54.155Z,54.55
2023-03-27T13:23:11.383Z,53.12
2023-03-27T13:26:31.533Z,56.94
2023-03-27T13:29:35.998Z,54.05
2023-03-27T13:32:39.958Z,49.79
2023-03-27T13:35:53.652Z,48.74
2023-03-27T13:39:24.868Z,54.24
2023-03-27T13:42:34.072Z,53.36
2023-03-27T13:45:46.839Z,49.30
2023-03-27T13:49:07.877Z,49.22
2023-03-27T13:52:36.386Z,48.59
2023-03-27T13:56:26.591Z,49.38
2023-03-27T13:59:51.017Z,49.79
2023-03-27T14:03:14.966Z,47.41
2023-03-27T14:07:00.153Z,49.74
2023-03-27T14:10:19.690Z,48.40
2023-03-27T14:13:35.535Z,45.87
2023-03-27T14:16:50.345Z,46.46
2023-03-27T14:20:14.186Z,49.54
2023-03-27T14:23:23.438Z,48.57
2023-03-27T14:26:30.293Z,48.89
2023-03-27T14:29:34.791Z,48.47
2023-03-27T14:32:37.468Z,48.62
2023-03-27T14:35:44.054Z,50.79
2023-03-27T14:38:47.287Z,49.88
2023-03-27T14:41:54.365Z,50.63
2023-03-27T14:45:11.220Z,48.33
2023-03-27T14:48:22.530Z,48.77
2023-03-27T14:51:34.784Z,48.64
2023-03-27T14:54:52.264Z,48.40
2023-03-27T14:58:00.664Z,45.28
2023-03-27T15:01:06.229Z,47.83
2023-03-27T15:04:11.207Z,47.09
2023-03-27T15:07:19.637Z,46.77
2023-03-27T15:10:26.101Z,45.40
2023-03-27T15:13:35.341Z,46.84
2023-03-27T15:16:39.879Z,45.28
2023-03-27T15:19:48.486Z,44.51
2023-03-27T15:22:55.901Z,47.20
2023-03-27T15:26:02.742Z,48.96
2023-03-27T15:29:13.732Z,49.18
2023-03-27T15:32:22.092Z,46.13
2023-03-27T15:35:31.677Z,48.99
2023-03-27T15:38:36.982Z,49.93
2023-03-27T15:41:43.952Z,51.58
2023-03-27T15:44:46.564Z,54.09
2023-03-27T15:48:01.885Z,53.25
2023-03-27T15:51:06.357Z,55.35
2023-03-27T15:54:25.348Z,54.51
2023-03-27T15:57:30.501Z,55.37
2023-03-27T16:00:33.014Z,56.20
2023-03-27T16:03:38.435Z,55.90
2023-03-27T16:06:44.980Z,56.52
2023-03-27T16:09:53.028Z,56.37
2023-03-27T16:12:58.235Z,56.23
2023-03-27T16:16:02.302Z,56.14
2023-03-27T16:19:13.494Z,58.41
2023-03-27T16:22:21.344Z,57.66
2023-03-27T16:25:23.869Z,58.70
2023-03-27T16:28:29.681Z,62.77
2023-03-27T16:31:32.240Z,64.51
2023-03-27T16:34:36.246Z,67.29
2023-03-27T16:37:38.718Z,68.38
2023-03-27T16:40:41.243Z,69.49
2023-03-27T16:43:44.712Z,72.77
2023-03-27T16:46:47.513Z,71.46
2023-03-27T16:50:09.866Z,73.64
2023-03-27T16:53:13.389Z,74.31
2023-03-27T16:56:16.014Z,76.07
2023-03-27T16:59:18.669Z,77.41
2023-03-27T17:02:21.130Z,78.47
2023-03-27T17:05:25.739Z,78.74
2023-03-27T17:08:30.285Z,80.25
2023-03-27T17:11:32.777Z,80.23
2023-03-27T17:14:35.352Z,81.61
2023-03-27T17:17:38.010Z,81.72
2023-03-27T17:20:41.866Z,81.51
2023-03-27T17:23:48.202Z,81.08
2023-03-27T17:26:50.671Z,81.60
2023-03-27T17:29:53.153Z,80.47
2023-03-27T17:32:55.720Z,79.62
2023-03-27T17:35:59.710Z,82.51
2023-03-27T17:39:04.423Z,92.59
2023-03-27T17:42:07.277Z,100.00
2023-03-27T17:45:10.787Z,100.00
2023-03-27T17:48:13.461Z,100.00
2023-03-27T17:51:17.326Z,100.00
2023-03-27T17:54:19.831Z,100.00
2023-03-27T17:57:22.882Z,100.00
2023-03-27T18:00:26.075Z,100.00
2023-03-27T18:03:28.929Z,100.00
2023-03-27T18:06:32.836Z,100.00
2023-03-27T18:09:35.830Z,100.00
2023-03-27T18:12:38.313Z,100.00
2023-03-27T18:15:41.032Z,100.00
2023-03-27T18:18:43.539Z,100.00
2023-03-27T18:21:47.388Z,100.00
2023-03-27T18:24:49.958Z,100.00
2023-03-27T18:27:52.456Z,100.00
2023-03-27T18:30:59.929Z,100.00
2023-03-27T18:34:02.494Z,100.00
2023-03-27T18:37:06.371Z,100.00
2023-03-27T18:40:11.991Z,100.00
2023-03-27T18:43:14.511Z,100.00
2023-03-27T18:46:17.663Z,100.00
2023-03-27T18:49:24.858Z,100.00
2023-03-27T18:52:29.522Z,100.00
2023-03-27T18:55:32.413Z,100.00
2023-03-27T18:58:35.725Z,100.00
2023-03-27T19:01:38.592Z,100.00
2023-03-27T19:04:41.248Z,100.00
2023-03-27T19:07:45.791Z,100.00
2023-03-27T19:10:48.314Z,100.00
2023-03-27T19:13:50.854Z,100.00
2023-03-27T19:16:54.939Z,100.00
2023-03-27T19:19:57.521Z,100.00
2023-03-27T19:23:01.376Z,100.00
2023-03-27T19:26:08.652Z,100.00
2023-03-27T19:29:11.779Z,100.00
2023-03-27T19:32:14.267Z,100.00
2023-03-27T19:35:16.877Z,100.00
2023-03-27T19:38:20.694Z,100.00
2023-03-27T19:41:23.264Z,100.00
2023-03-27T19:44:25.808Z,100.00
2023-03-27T19:47:28.401Z,100.00
2023-03-27T19:50:31.226Z,100.00
2023-03-27T19:53:35.039Z,100.00
2023-03-27T19:56:37.622Z,100.00
2023-03-27T19:59:40.240Z,100.00
2023-03-27T20:02:43.869Z,100.00
2023-03-27T20:05:48.317Z,100.00
2023-03-27T20:08:52.134Z,100.00
2023-03-27T20:11:54.905Z,100.00
